Time;durP1;ratioP1;P1;durP2;ratioP2;P2;SDS_P1;SDS_P2;PMS_P1;PMS_P2;Temp;Humidity;BMP_temperature;BMP_pressure;BME280_temperature;BME280_humidity;BME280_pressure;Samples;Min_cycle;Max_cycle;Signal;HPM_P1;HPM_P2
2022/05/22 00:00:42;;;;;;;2.00;1.33;;;18.20;99.90;;;;;;7389724;19;20147;-79
2022/05/22 00:03:50;;;;;;;2.42;1.58;;;18.40;99.90;;;;;;7396092;19;20158;-80
2022/05/22 00:06:16;;;;;;;1.75;1.20;;;18.20;99.90;;;;;;7389369;19;20150;-77
2022/05/22 00:08:42;;;;;;;2.13;1.40;;;18.30;99.90;;;;;;7393386;19;20645;-74
2022/05/22 00:11:08;;;;;;;2.55;1.63;;;18.40;99.90;;;;;;7396972;19;20571;-78
2022/05/22 00:13:34;;;;;;;2.53;1.85;;;18.20;99.90;;;;;;7397358;19;20175;-77
2022/05/22 00:18:44;;;;;;;3.53;2.00;;;17.70;99.90;;;;;;7394096;19;20161;-74
2022/05/22 00:21:10;;;;;;;2.05;1.60;;;17.80;99.90;;;;;;7394565;19;20153;-74
2022/05/22 00:23:36;;;;;;;2.63;1.55;;;17.10;99.90;;;;;;7390345;19;20224;-77
2022/05/22 00:26:02;;;;;;;3.22;1.55;;;16.70;99.90;;;;;;7396858;19;20135;-75
2022/05/22 00:28:28;;;;;;;3.17;2.08;;;16.80;99.90;;;;;;7390750;19;20154;-78
2022/05/22 00:30:54;;;;;;;3.50;1.90;;;17.20;99.90;;;;;;7392868;19;20143;-78
2022/05/22 00:33:19;;;;;;;1.42;1.33;;;17.20;99.90;;;;;;7391538;19;20176;-78
2022/05/22 00:35:55;;;;;;;2.85;1.58;;;17.00;99.90;;;;;;7390550;19;20153;-78
2022/05/22 00:38:21;;;;;;;2.90;1.48;;;16.80;99.90;;;;;;7389636;19;20523;-78
2022/05/22 00:40:46;;;;;;;3.05;1.85;;;16.80;99.90;;;;;;7391945;19;20179;-78
2022/05/22 00:43:31;;;;;;;2.42;1.73;;;17.00;99.90;;;;;;7395087;19;20542;-76
2022/05/22 00:45:58;;;;;;;3.47;1.77;;;17.10;99.90;;;;;;7392428;19;20211;-76
2022/05/22 00:48:25;;;;;;;2.05;1.50;;;17.50;99.90;;;;;;7389000;19;20154;-74
2022/05/22 00:50:52;;;;;;;3.00;1.80;;;17.60;99.90;;;;;;7389468;19;20174;-78
2022/05/22 00:53:21;;;;;;;2.63;1.77;;;17.90;99.90;;;;;;7389773;19;20167;-76
2022/05/22 00:55:46;;;;;;;4.47;2.25;;;17.90;99.90;;;;;;7388947;19;20171;-74
2022/05/22 00:58:19;;;;;;;3.20;1.75;;;17.90;99.90;;;;;;7389824;19;20122;-78
2022/05/22 01:00:45;;;;;;;2.70;2.08;;;18.10;99.90;;;;;;7397277;19;20376;-79
2022/05/22 01:03:27;;;;;;;3.95;2.20;;;17.50;99.90;;;;;;7396583;19;20145;-78
2022/05/22 01:06:04;;;;;;;4.22;2.35;;;17.40;99.90;;;;;;7390218;19;20135;-75
2022/05/22 01:08:31;;;;;;;3.28;2.05;;;17.70;99.90;;;;;;7388710;19;20130;-76
2022/05/22 01:11:34;;;;;;;3.53;2.08;;;17.80;99.90;;;;;;7392251;19;20146;-80
2022/05/22 01:14:08;;;;;;;2.53;2.03;;;17.90;99.90;;;;;;7387248;19;20142;-75
2022/05/22 01:16:34;;;;;;;4.75;2.10;;;17.90;99.90;;;;;;7394276;19;20141;-79
2022/05/22 01:19:10;;;;;;;5.13;2.13;;;17.80;99.90;;;;;;7393187;19;20131;-76
2022/05/22 01:21:37;;;;;;;4.78;2.10;;;17.80;99.90;;;;;;7391690;19;20573;-76
2022/05/22 01:24:03;;;;;;;4.22;1.90;;;17.50;99.90;;;;;;7387218;19;20141;-76
2022/05/22 01:26:30;;;;;;;4.22;2.00;;;17.40;99.90;;;;;;7391244;19;20221;-75
2022/05/22 01:28:56;;;;;;;2.95;1.70;;;17.60;99.90;;;;;;7389651;19;20137;-75
2022/05/22 01:31:22;;;;;;;5.18;1.90;;;17.60;99.90;;;;;;7387670;19;20130;-75
2022/05/22 01:33:48;;;;;;;3.38;1.85;;;17.50;99.90;;;;;;7388530;19;20253;-75
2022/05/22 01:36:16;;;;;;;5.30;1.67;;;17.20;99.90;;;;;;7391602;19;20165;-76
2022/05/22 01:38:42;;;;;;;2.08;1.50;;;17.30;99.90;;;;;;7387844;19;20147;-78
2022/05/22 01:41:08;;;;;;;2.22;1.50;;;17.50;99.90;;;;;;7387940;19;20146;-76
2022/05/22 01:43:35;;;;;;;2.63;1.52;;;17.30;99.90;;;;;;7390971;19;20139;-74
2022/05/22 01:46:02;;;;;;;3.75;1.85;;;17.10;99.90;;;;;;7387461;19;20131;-78
2022/05/22 01:48:28;;;;;;;1.90;1.40;;;17.30;99.90;;;;;;7386895;19;20150;-76
2022/05/22 01:50:55;;;;;;;1.98;1.25;;;17.50;99.90;;;;;;7388168;19;20153;-79
2022/05/22 01:53:22;;;;;;;2.13;1.50;;;17.50;99.90;;;;;;7390539;19;20194;-79
2022/05/22 01:55:50;;;;;;;3.30;1.50;;;17.50;99.90;;;;;;7386491;19;20142;-77
2022/05/22 01:58:16;;;;;;;2.00;1.70;;;17.50;99.90;;;;;;7387592;19;20134;-76
2022/05/22 02:00:42;;;;;;;3.72;1.52;;;17.50;99.90;;;;;;7389354;19;20134;-77
2022/05/22 02:03:08;;;;;;;2.03;1.63;;;17.40;99.90;;;;;;7387346;19;20244;-75
2022/05/22 02:05:34;;;;;;;2.80;1.50;;;17.50;99.90;;;;;;7391738;19;20163;-76
2022/05/22 02:10:46;;;;;;;2.25;1.20;;;17.00;99.90;;;;;;7394590;19;20130;-77
2022/05/22 02:13:16;;;;;;;1.77;1.38;;;16.60;99.90;;;;;;7395834;19;20134;-78
2022/05/22 02:15:44;;;;;;;1.42;1.02;;;16.60;99.90;;;;;;7395335;19;20139;-79
2022/05/22 02:18:10;;;;;;;2.30;1.30;;;16.90;99.90;;;;;;7398728;19;20605;-79
2022/05/22 02:20:36;;;;;;;1.92;1.05;;;16.90;99.90;;;;;;7395119;19;20135;-78
2022/05/22 02:23:02;;;;;;;2.85;1.33;;;16.90;99.90;;;;;;7396996;19;20681;-75
2022/05/22 02:25:34;;;;;;;1.90;1.27;;;17.00;99.90;;;;;;7392924;19;20130;-79
2022/05/22 02:28:01;;;;;;;1.77;1.10;;;16.80;99.90;;;;;;7392793;19;20131;-77
2022/05/22 02:30:30;;;;;;;1.83;1.30;;;16.90;99.90;;;;;;7393763;19;20497;-78
2022/05/22 02:32:56;;;;;;;3.63;1.60;;;16.90;99.90;;;;;;7393743;19;20159;-77
2022/05/22 02:35:22;;;;;;;1.77;1.38;;;16.80;99.90;;;;;;7393339;19;20653;-78
2022/05/22 02:37:50;;;;;;;1.70;1.25;;;17.00;99.90;;;;;;7396108;19;20473;-78
2022/05/22 02:40:18;;;;;;;2.70;1.63;;;17.20;99.90;;;;;;7398512;19;20161;-78
2022/05/22 02:42:47;;;;;;;1.88;1.20;;;17.10;99.90;;;;;;7393943;19;20148;-79
2022/05/22 02:45:15;;;;;;;3.47;1.65;;;16.80;99.90;;;;;;7393593;19;20156;-80
2022/05/22 02:47:41;;;;;;;2.67;1.33;;;16.70;99.90;;;;;;7392187;19;20138;-79
2022/05/22 02:50:09;;;;;;;2.65;1.48;;;16.80;99.90;;;;;;7393590;19;20150;-79
2022/05/22 02:52:35;;;;;;;4.30;1.52;;;17.10;99.90;;;;;;7396508;19;20146;-80
2022/05/22 02:55:01;;;;;;;2.95;1.20;;;17.10;99.90;;;;;;7396658;19;20629;-75
2022/05/22 02:57:27;;;;;;;2.75;1.67;;;16.80;99.90;;;;;;7395126;19;20141;-79
2022/05/22 02:59:54;;;;;;;1.98;1.40;;;16.70;99.90;;;;;;7394601;19;20477;-78
2022/05/22 03:02:20;;;;;;;2.67;1.75;;;16.60;99.90;;;;;;7392478;19;20490;-76
2022/05/22 03:04:49;;;;;;;1.50;1.20;;;16.80;99.90;;;;;;7391150;19;20489;-78
2022/05/22 03:07:17;;;;;;;2.15;1.55;;;17.00;99.90;;;;;;7395635;19;20214;-76
2022/05/22 03:09:45;;;;;;;2.08;1.50;;;16.90;99.90;;;;;;7391957;19;20150;-76
2022/05/22 03:12:16;;;;;;;3.55;1.35;;;17.00;99.90;;;;;;7396541;19;20126;-78
2022/05/22 03:14:48;;;;;;;4.90;1.42;;;16.90;99.90;;;;;;7391299;19;20145;-79
2022/05/22 03:17:14;;;;;;;2.45;1.55;;;16.70;99.90;;;;;;7394433;19;20141;-79
2022/05/22 03:19:40;;;;;;;4.00;1.70;;;16.70;99.90;;;;;;7391318;19;20153;-76
2022/05/22 03:22:07;;;;;;;3.70;1.40;;;16.80;99.90;;;;;;7397093;19;20142;-76
2022/05/22 03:24:33;;;;;;;2.83;1.58;;;16.90;99.90;;;;;;7395392;19;20163;-77
2022/05/22 03:27:10;;;;;;;1.60;1.30;;;16.60;99.90;;;;;;7391368;19;20498;-75
2022/05/22 03:29:36;;;;;;;1.65;1.50;;;16.40;99.90;;;;;;7390651;19;20142;-76
2022/05/22 03:32:03;;;;;;;2.05;1.55;;;16.70;99.90;;;;;;7391010;19;20135;-79
2022/05/22 03:34:29;;;;;;;2.33;1.42;;;16.80;99.90;;;;;;7391867;19;20172;-76
2022/05/22 03:36:55;;;;;;;2.40;1.60;;;16.90;99.90;;;;;;7391433;19;20550;-75
2022/05/22 03:39:21;;;;;;;3.10;1.52;;;16.90;99.90;;;;;;7394097;19;20127;-75
2022/05/22 03:41:47;;;;;;;1.73;1.63;;;16.70;99.90;;;;;;7401297;19;20594;-78
2022/05/22 03:44:13;;;;;;;2.75;1.65;;;16.80;99.90;;;;;;7393264;19;20134;-78
2022/05/22 03:46:39;;;;;;;5.38;1.63;;;16.80;99.90;;;;;;7394954;19;20138;-79
2022/05/22 03:49:05;;;;;;;2.90;1.70;;;16.80;99.90;;;;;;7392397;19;20123;-77
2022/05/22 03:51:31;;;;;;;2.53;1.60;;;16.80;99.90;;;;;;7391952;19;20129;-77
2022/05/22 03:53:58;;;;;;;3.22;1.50;;;16.80;99.90;;;;;;7391085;19;20220;-77
2022/05/22 03:56:24;;;;;;;1.52;1.42;;;16.70;99.90;;;;;;7393087;19;20143;-77
2022/05/22 03:58:50;;;;;;;1.90;1.48;;;16.60;99.90;;;;;;7397417;19;20642;-79
2022/05/22 04:01:16;;;;;;;3.88;1.45;;;16.70;99.90;;;;;;7390012;19;20610;-77
2022/05/22 04:03:42;;;;;;;5.50;1.70;;;16.70;99.90;;;;;;7389333;19;20166;-78
2022/05/22 04:06:10;;;;;;;2.08;1.33;;;16.80;99.90;;;;;;7391976;19;20131;-78
2022/05/22 04:08:36;;;;;;;2.47;1.75;;;16.40;99.90;;;;;;7390504;19;20139;-76
2022/05/22 04:11:07;;;;;;;3.67;1.75;;;16.40;99.90;;;;;;7391644;19;20134;-78
2022/05/22 04:13:34;;;;;;;2.47;1.65;;;16.40;99.90;;;;;;7393139;19;20163;-75
2022/05/22 04:15:59;;;;;;;2.78;1.90;;;16.50;99.90;;;;;;7391769;19;20211;-75
2022/05/22 04:18:25;;;;;;;3.25;1.95;;;16.60;99.90;;;;;;7389249;19;20134;-75
2022/05/22 04:20:51;;;;;;;1.88;1.70;;;16.80;99.90;;;;;;7391653;19;20142;-76
2022/05/22 04:26:03;;;;;;;2.35;1.90;;;16.70;99.90;;;;;;7387866;19;20474;-78
2022/05/22 04:28:31;;;;;;;2.08;1.83;;;16.70;99.90;;;;;;7394800;19;20134;-78
2022/05/22 04:30:56;;;;;;;2.65;2.00;;;16.70;99.90;;;;;;7390320;19;20137;-76
2022/05/22 04:33:23;;;;;;;2.53;1.83;;;16.60;99.90;;;;;;7388939;19;20122;-76
2022/05/22 04:35:49;;;;;;;2.65;2.05;;;16.60;99.90;;;;;;7389893;19;20130;-78
2022/05/22 04:38:15;;;;;;;2.53;1.52;;;16.80;99.90;;;;;;7387933;19;20698;-75
2022/05/22 04:40:42;;;;;;;2.05;1.60;;;16.80;99.90;;;;;;7391034;19;20127;-79
2022/05/22 04:43:09;;;;;;;2.42;2.00;;;16.80;99.90;;;;;;7393208;19;20581;-75
2022/05/22 04:45:40;;;;;;;2.67;2.13;;;17.00;99.90;;;;;;7392837;19;20189;-76
2022/05/22 04:48:06;;;;;;;1.88;1.50;;;17.00;99.90;;;;;;7388120;19;20150;-76
2022/05/22 04:50:33;;;;;;;2.63;2.00;;;16.90;99.90;;;;;;7389240;19;20127;-79
2022/05/22 04:52:59;;;;;;;2.83;1.80;;;16.90;99.90;;;;;;7389197;19;20226;-76
2022/05/22 04:55:25;;;;;;;2.05;1.85;;;16.80;99.90;;;;;;7388428;19;20142;-74
2022/05/22 04:57:51;;;;;;;2.63;1.85;;;17.00;99.90;;;;;;7388954;19;20130;-77
2022/05/22 05:00:18;;;;;;;2.83;1.90;;;17.20;99.90;;;;;;7392905;19;20141;-75
2022/05/22 05:02:44;;;;;;;2.38;1.77;;;17.00;99.90;;;;;;7395825;19;20150;-75
2022/05/22 05:05:10;;;;;;;3.97;1.58;;;16.90;99.90;;;;;;7386942;19;20139;-79
2022/05/22 05:07:40;;;;;;;5.10;2.00;;;16.90;99.90;;;;;;7388536;19;20139;-78
2022/05/22 05:10:08;;;;;;;3.10;1.80;;;16.80;99.90;;;;;;7388054;19;20146;-75
2022/05/22 05:12:39;;;;;;;2.55;2.35;;;16.80;99.90;;;;;;7388326;19;20138;-76
2022/05/22 05:15:07;;;;;;;2.78;1.88;;;16.90;99.90;;;;;;7387925;19;20171;-75
2022/05/22 05:17:33;;;;;;;3.00;2.30;;;17.00;99.90;;;;;;7391186;19;20685;-78
2022/05/22 05:20:00;;;;;;;2.80;1.58;;;17.00;99.90;;;;;;7398523;19;20130;-75
2022/05/22 05:22:26;;;;;;;2.15;1.80;;;16.90;99.90;;;;;;7390549;19;20162;-75
2022/05/22 05:24:51;;;;;;;2.63;1.80;;;17.10;99.90;;;;;;7387291;19;20159;-78
2022/05/22 05:27:17;;;;;;;3.17;1.80;;;17.10;99.90;;;;;;7386869;19;20534;-75
2022/05/22 05:29:43;;;;;;;2.65;1.70;;;17.20;99.90;;;;;;7388106;19;20138;-78
2022/05/22 05:32:09;;;;;;;2.78;2.00;;;17.30;99.90;;;;;;7387639;19;20127;-76
2022/05/22 05:34:35;;;;;;;2.33;1.60;;;17.10;99.90;;;;;;7387463;19;20131;-78
2022/05/22 05:37:01;;;;;;;2.25;1.70;;;17.20;99.90;;;;;;7395179;19;20162;-76
2022/05/22 05:39:27;;;;;;;2.92;1.85;;;17.20;99.90;;;;;;7396012;19;20138;-74
2022/05/22 05:41:56;;;;;;;2.22;1.73;;;17.20;99.90;;;;;;7395777;19;20142;-77
2022/05/22 05:44:23;;;;;;;2.33;1.50;;;17.20;99.90;;;;;;7395349;19;20131;-77
2022/05/22 05:46:49;;;;;;;2.25;1.65;;;17.30;99.90;;;;;;7393602;19;20138;-79
2022/05/22 05:49:15;;;;;;;2.45;1.65;;;17.10;99.90;;;;;;7395098;19;20145;-78
2022/05/22 05:51:41;;;;;;;3.65;1.90;;;17.20;99.90;;;;;;7397879;19;20218;-75
2022/05/22 05:54:07;;;;;;;3.53;1.77;;;17.30;99.90;;;;;;7397434;19;20530;-75
2022/05/22 05:56:36;;;;;;;1.98;1.70;;;17.50;99.90;;;;;;7395304;19;20130;-77
2022/05/22 05:59:02;;;;;;;1.58;1.48;;;17.50;99.90;;;;;;7394971;19;20139;-76
2022/05/22 06:01:27;;;;;;;1.60;1.50;;;17.60;99.90;;;;;;7394588;19;20602;-80
2022/05/22 06:03:53;;;;;;;2.85;1.77;;;17.20;99.90;;;;;;7392945;19;20143;-77
2022/05/22 06:06:19;;;;;;;4.90;1.95;;;17.10;99.90;;;;;;7395591;19;20131;-78
2022/05/22 06:08:47;;;;;;;3.67;1.75;;;17.30;99.90;;;;;;7404036;19;20178;-76
2022/05/22 06:11:12;;;;;;;3.28;1.80;;;17.50;99.90;;;;;;7397938;19;20139;-76
2022/05/22 06:13:41;;;;;;;3.65;2.28;;;17.70;99.90;;;;;;7393980;19;20151;-74
2022/05/22 06:16:07;;;;;;;2.38;1.65;;;18.20;99.90;;;;;;7393560;19;20139;-78
2022/05/22 06:18:34;;;;;;;2.25;1.83;;;19.20;99.90;;;;;;7395834;19;20567;-76
2022/05/22 06:21:17;;;;;;;1.95;1.48;;;20.00;99.90;;;;;;7395933;19;20146;-75
2022/05/22 06:23:44;;;;;;;3.05;1.50;;;20.80;99.90;;;;;;7394205;19;20146;-78
2022/05/22 06:26:13;;;;;;;1.70;1.50;;;21.70;99.90;;;;;;7394807;19;20150;-77
2022/05/22 06:28:39;;;;;;;1.85;1.40;;;22.30;99.90;;;;;;7396937;19;20127;-79
2022/05/22 06:31:07;;;;;;;1.52;1.42;;;22.80;99.90;;;;;;7393687;19;20142;-75
2022/05/22 06:33:34;;;;;;;2.15;1.70;;;23.20;99.90;;;;;;7393263;19;20147;-75
2022/05/22 06:36:00;;;;;;;2.35;1.50;;;23.40;99.90;;;;;;7394767;19;20130;-77
2022/05/22 06:41:11;;;;;;;5.03;1.92;;;23.20;99.90;;;;;;7396991;19;20126;-76
2022/05/22 06:43:37;;;;;;;2.15;1.58;;;23.30;99.90;;;;;;7403765;19;20407;-76
2022/05/22 06:46:04;;;;;;;2.90;1.83;;;23.40;99.90;;;;;;7400226;19;20589;-79
2022/05/22 06:48:30;;;;;;;2.10;1.48;;;22.90;99.90;;;;;;7391219;19;20139;-77
2022/05/22 06:50:56;;;;;;;2.30;1.50;;;23.50;99.90;;;;;;7393022;19;20135;-77
2022/05/22 06:53:22;;;;;;;4.32;1.58;;;23.30;99.90;;;;;;7392752;19;20650;-77
2022/05/22 06:55:48;;;;;;;1.60;1.30;;;23.10;99.90;;;;;;7392940;19;20146;-79
2022/05/22 06:58:15;;;;;;;3.55;1.67;;;22.90;99.90;;;;;;7392780;19;20150;-76
2022/05/22 07:00:40;;;;;;;3.83;1.60;;;22.80;99.90;;;;;;7394623;19;20126;-74
2022/05/22 07:03:06;;;;;;;3.78;1.75;;;22.50;99.90;;;;;;7394312;19;20161;-76
2022/05/22 07:05:32;;;;;;;2.30;1.65;;;22.50;99.90;;;;;;7390044;19;20134;-77
2022/05/22 07:07:58;;;;;;;1.70;1.40;;;22.60;99.90;;;;;;7392274;19;20484;-75
2022/05/22 07:11:38;;;;;;;2.78;1.63;;;22.70;99.90;;;;;;7391728;19;20222;-74
2022/05/22 07:13:11;;;;;;;2.53;1.48;;;23.00;99.90;;;;;;7392158;19;20147;-74
2022/05/22 07:15:38;;;;;;;1.80;1.50;;;23.40;99.90;;;;;;7394564;19;20130;-78
2022/05/22 07:18:04;;;;;;;2.58;1.50;;;23.30;99.80;;;;;;7399306;19;20151;-75
2022/05/22 07:20:30;;;;;;;1.70;1.30;;;23.20;99.80;;;;;;7392618;19;20169;-77
2022/05/22 07:22:56;;;;;;;2.95;1.33;;;22.80;99.90;;;;;;7391149;19;20151;-74
2022/05/22 07:25:22;;;;;;;2.33;1.60;;;22.80;99.90;;;;;;7389408;19;20134;-74
2022/05/22 07:27:47;;;;;;;1.63;1.30;;;22.90;99.90;;;;;;7390320;19;20143;-74
2022/05/22 07:30:13;;;;;;;1.73;1.48;;;22.90;99.90;;;;;;7392515;19;20172;-74
2022/05/22 07:32:39;;;;;;;1.52;1.10;;;23.00;99.90;;;;;;7392452;19;20160;-76
2022/05/22 07:35:06;;;;;;;3.67;1.38;;;23.10;99.70;;;;;;7400052;19;20217;-76
2022/05/22 07:37:32;;;;;;;2.83;1.40;;;23.30;99.30;;;;;;7390668;19;20145;-74
2022/05/22 07:39:58;;;;;;;3.05;1.48;;;23.20;99.20;;;;;;7393361;19;20214;-77
2022/05/22 07:42:24;;;;;;;1.20;1.10;;;23.10;99.20;;;;;;7393498;19;20149;-77
2022/05/22 07:44:49;;;;;;;2.53;1.33;;;23.20;99.10;;;;;;7392470;19;20147;-77
2022/05/22 07:47:15;;;;;;;3.90;1.52;;;23.30;98.90;;;;;;7396427;19;20188;-77
2022/05/22 07:52:26;;;;;;;2.63;1.38;;;23.40;98.90;;;;;;7401837;19;20594;-76
2022/05/22 07:54:52;;;;;;;1.73;1.20;;;23.70;98.60;;;;;;7396503;19;20149;-74
2022/05/22 07:57:18;;;;;;;2.03;1.33;;;24.10;97.90;;;;;;7393460;19;20143;-77
2022/05/22 07:59:44;;;;;;;2.67;1.15;;;24.20;97.40;;;;;;7395747;19;20135;-77
2022/05/22 08:02:12;;;;;;;1.90;1.17;;;24.00;97.30;;;;;;7390883;19;20162;-77
2022/05/22 08:04:40;;;;;;;2.08;1.08;;;24.10;97.10;;;;;;7392934;19;20174;-74
2022/05/22 08:07:05;;;;;;;1.23;1.00;;;24.20;96.60;;;;;;7392060;19;20518;-74
2022/05/22 08:09:31;;;;;;;1.40;1.20;;;24.30;96.60;;;;;;7394916;19;21666;-77
2022/05/22 08:11:57;;;;;;;2.70;1.30;;;24.50;96.30;;;;;;7395552;19;20209;-74
2022/05/22 08:14:23;;;;;;;2.08;1.20;;;24.60;96.10;;;;;;7394243;19;20165;-77
2022/05/22 08:16:51;;;;;;;1.02;0.98;;;25.00;95.70;;;;;;7392439;19;20198;-76
2022/05/22 08:19:18;;;;;;;1.85;1.20;;;25.50;94.60;;;;;;7392448;19;20143;-77
2022/05/22 08:21:54;;;;;;;2.30;1.10;;;25.70;94.30;;;;;;7428413;19;20858;-78
2022/05/22 08:24:20;;;;;;;1.75;1.08;;;25.80;94.60;;;;;;7426722;19;20154;-76
2022/05/22 08:26:46;;;;;;;1.30;1.00;;;25.90;94.20;;;;;;7426353;19;20141;-74
2022/05/22 08:29:12;;;;;;;2.83;1.50;;;26.00;93.30;;;;;;7431674;19;20153;-76
2022/05/22 08:31:37;;;;;;;2.20;1.40;;;26.00;92.90;;;;;;7429218;19;20160;-73
2022/05/22 08:34:03;;;;;;;2.15;1.10;;;26.10;93.00;;;;;;7425493;19;20581;-74
2022/05/22 08:36:29;;;;;;;2.33;1.95;;;25.80;93.10;;;;;;7427498;19;20571;-74
2022/05/22 08:38:55;;;;;;;1.65;1.13;;;25.70;93.10;;;;;;7422888;19;20158;-76
2022/05/22 08:41:33;;;;;;;1.25;1.08;;;25.50;92.90;;;;;;7422361;19;20142;-79
2022/05/22 08:44:09;;;;;;;1.63;0.80;;;25.00;92.90;;;;;;7425047;19;20130;-73
2022/05/22 08:46:58;;;;;;;1.30;0.80;;;24.80;93.50;;;;;;7430867;19;20490;-78
2022/05/22 08:49:43;;;;;;;2.55;1.00;;;24.80;93.30;;;;;;7425132;19;20153;-76
2022/05/22 08:52:11;;;;;;;3.03;0.80;;;24.60;93.50;;;;;;7427334;19;20161;-78
2022/05/22 08:54:45;;;;;;;1.42;1.20;;;24.40;94.10;;;;;;7431621;19;20134;-80
2022/05/22 09:00:09;;;;;;;1.77;1.00;;;24.70;93.50;;;;;;7424882;19;20138;-72
2022/05/22 09:03:05;;;;;;;1.17;0.75;;;24.60;93.10;;;;;;7428787;19;20134;-73
2022/05/22 09:05:32;;;;;;;1.60;1.00;;;24.30;93.20;;;;;;7427969;19;20154;-79
2022/05/22 09:08:06;;;;;;;1.70;0.80;;;24.30;93.10;;;;;;7429345;19;20153;-76
2022/05/22 09:10:49;;;;;;;1.95;0.70;;;24.20;92.60;;;;;;7427459;19;20138;-74
2022/05/22 09:13:23;;;;;;;1.35;0.70;;;24.10;92.50;;;;;;7422891;19;20596;-81
2022/05/22 09:15:57;;;;;;;1.70;0.80;;;24.10;92.90;;;;;;7424539;19;20222;-75
2022/05/22 09:18:32;;;;;;;1.27;0.82;;;23.70;92.90;;;;;;7426343;19;20157;-75
2022/05/22 09:21:08;;;;;;;1.45;1.10;;;23.60;93.10;;;;;;7421794;19;20150;-76
2022/05/22 09:23:43;;;;;;;1.90;0.98;;;23.40;93.50;;;;;;7425654;19;20133;-80
2022/05/22 09:26:21;;;;;;;2.17;1.30;;;24.00;93.80;;;;;;7423178;19;20564;-76
2022/05/22 09:29:23;;;;;;;1.20;0.80;;;24.20;92.90;;;;;;7426090;19;20620;-78
2022/05/22 09:32:01;;;;;;;2.28;1.25;;;24.10;92.70;;;;;;7415468;19;20166;-78
2022/05/22 09:34:58;;;;;;;3.17;1.10;;;24.40;93.20;;;;;;7397057;19;20221;-76
2022/05/22 09:38:01;;;;;;;1.83;0.88;;;24.70;93.30;;;;;;7396638;19;20565;-80
2022/05/22 09:40:49;;;;;;;1.40;0.90;;;24.90;92.70;;;;;;7393825;19;20150;-78
2022/05/22 09:43:37;;;;;;;1.67;0.82;;;24.90;92.70;;;;;;7395457;19;20161;-80
2022/05/22 09:46:29;;;;;;;1.15;0.90;;;24.80;92.40;;;;;;7398753;19;20134;-76
2022/05/22 09:49:22;;;;;;;2.78;1.05;;;24.70;92.80;;;;;;7395516;19;20154;-76
2022/05/22 09:51:59;;;;;;;1.00;0.90;;;24.80;92.70;;;;;;7395691;19;20233;-77
2022/05/22 09:54:47;;;;;;;0.95;0.70;;;24.80;93.00;;;;;;7396748;19;20198;-76
2022/05/22 09:57:13;;;;;;;1.52;1.00;;;24.90;93.20;;;;;;7398047;19;20597;-80
2022/05/22 10:00:00;;;;;;;1.20;0.82;;;25.10;92.90;;;;;;7396334;19;20135;-77
2022/05/22 10:02:56;;;;;;;1.10;0.90;;;25.10;92.40;;;;;;7398134;19;20159;-76
2022/05/22 10:05:22;;;;;;;1.58;1.17;;;25.10;92.80;;;;;;7399635;19;20153;-75
2022/05/22 10:07:51;;;;;;;1.83;1.13;;;24.90;92.00;;;;;;7399819;19;20122;-74
2022/05/22 10:10:39;;;;;;;2.53;1.10;;;24.60;92.30;;;;;;7399423;19;20143;-76
2022/05/22 10:13:20;;;;;;;1.20;1.10;;;24.40;92.40;;;;;;7395828;19;20138;-81
2022/05/22 10:16:07;;;;;;;1.40;0.90;;;24.20;92.40;;;;;;7395887;19;20134;-79
2022/05/22 10:18:58;;;;;;;1.75;0.98;;;24.00;92.60;;;;;;7394996;19;20166;-74
2022/05/22 10:21:45;;;;;;;1.05;0.80;;;23.90;92.80;;;;;;7399226;19;20210;-77
2022/05/22 10:24:29;;;;;;;2.35;0.80;;;23.90;93.10;;;;;;7396438;19;20123;-76
2022/05/22 10:27:07;;;;;;;1.02;0.80;;;24.20;92.80;;;;;;7395404;19;20366;-80
2022/05/22 10:29:54;;;;;;;1.00;0.80;;;24.00;92.80;;;;;;7393792;19;20142;-75
2022/05/22 10:32:39;;;;;;;2.22;1.20;;;24.30;93.20;;;;;;7398201;19;20134;-76
2022/05/22 10:35:21;;;;;;;2.92;1.15;;;24.60;92.20;;;;;;7395157;19;20135;-75
2022/05/22 10:38:01;;;;;;;1.15;1.00;;;24.60;91.80;;;;;;7398799;19;20135;-79
2022/05/22 10:42:45;;;;;;;2.60;1.02;;;24.50;92.00;;;;;;7390535;19;20515;-75
2022/05/22 10:43:14;;;;;;;2.83;1.00;;;24.40;92.00;;;;;;7393873;19;20550;-75
2022/05/22 10:45:40;;;;;;;2.20;1.00;;;24.30;92.00;;;;;;7395899;19;20155;-78
2022/05/22 10:48:23;;;;;;;3.88;1.13;;;24.30;92.10;;;;;;7396052;19;20146;-80
2022/05/22 10:51:06;;;;;;;2.13;0.90;;;24.20;92.10;;;;;;7401246;19;20135;-75
2022/05/22 10:53:35;;;;;;;1.02;0.93;;;24.20;92.30;;;;;;7396026;19;20131;-80
2022/05/22 10:56:16;;;;;;;1.20;1.00;;;24.20;92.40;;;;;;7397077;19;20141;-81
2022/05/22 10:58:55;;;;;;;1.80;0.98;;;24.30;92.00;;;;;;7393639;19;20119;-78
2022/05/22 11:01:27;;;;;;;2.65;1.10;;;24.30;92.10;;;;;;7389821;19;20127;-76
2022/05/22 11:04:07;;;;;;;1.60;0.90;;;24.40;92.10;;;;;;7390604;19;20174;-73
2022/05/22 11:06:36;;;;;;;0.85;0.70;;;24.60;91.90;;;;;;7392056;19;20605;-74
2022/05/22 11:09:03;;;;;;;2.33;1.10;;;24.70;92.20;;;;;;7395127;19;20612;-75
2022/05/22 11:11:33;;;;;;;1.60;1.10;;;24.80;91.70;;;;;;7393595;19;20166;-74
2022/05/22 11:14:25;;;;;;;3.38;1.30;;;24.80;91.20;;;;;;7393274;19;20190;-76
2022/05/22 11:16:51;;;;;;;1.67;1.10;;;24.70;91.40;;;;;;7392948;19;20504;-79
2022/05/22 11:19:25;;;;;;;1.45;1.10;;;24.70;91.40;;;;;;7395345;19;20134;-80
2022/05/22 11:22:06;;;;;;;1.38;0.93;;;24.80;91.10;;;;;;7389071;19;20131;-75
2022/05/22 11:25:15;;;;;;;2.13;0.90;;;24.80;91.60;;;;;;7394506;19;20147;-75
2022/05/22 11:27:56;;;;;;;1.38;1.20;;;25.00;91.50;;;;;;7393121;19;20150;-75
2022/05/22 11:30:43;;;;;;;2.65;1.10;;;25.10;90.80;;;;;;7395235;19;20135;-74
2022/05/22 11:33:32;;;;;;;2.33;1.60;;;24.90;90.80;;;;;;7393329;19;20213;-80
2022/05/22 11:36:22;;;;;;;1.70;1.20;;;24.90;91.30;;;;;;7394551;19;20601;-79
2022/05/22 11:38:57;;;;;;;2.30;1.70;;;24.80;90.90;;;;;;7396055;19;20589;-78
2022/05/22 11:41:26;;;;;;;1.45;1.10;;;24.80;91.00;;;;;;7392017;19;20169;-79
2022/05/22 11:43:58;;;;;;;1.73;1.00;;;24.80;90.70;;;;;;7398233;19;20134;-79
2022/05/22 11:47:09;;;;;;;1.40;0.90;;;24.70;90.70;;;;;;7402413;19;20137;-75
2022/05/22 11:50:06;;;;;;;1.48;0.90;;;24.70;91.00;;;;;;7391717;19;20146;-74
2022/05/22 11:53:00;;;;;;;1.42;1.00;;;24.70;91.00;;;;;;7395972;19;20139;-78
2022/05/22 11:55:53;;;;;;;1.73;1.15;;;24.70;90.80;;;;;;7392423;19;20142;-79
2022/05/22 11:58:34;;;;;;;2.20;1.45;;;24.80;90.90;;;;;;7392265;19;20574;-80
2022/05/22 12:01:22;;;;;;;1.80;1.23;;;24.80;91.10;;;;;;7389587;19;20509;-74
2022/05/22 12:04:03;;;;;;;2.03;1.10;;;24.90;91.20;;;;;;7392600;19;20202;-76
2022/05/22 12:06:43;;;;;;;1.63;1.10;;;25.00;90.90;;;;;;7394130;19;20150;-82
2022/05/22 12:09:36;;;;;;;1.55;1.23;;;25.10;90.90;;;;;;7392858;19;20162;-75
2022/05/22 12:12:25;;;;;;;1.63;1.13;;;25.20;90.40;;;;;;7394249;19;20141;-76
2022/05/22 12:15:28;;;;;;;1.13;0.90;;;25.20;90.00;;;;;;7393026;19;20155;-80
2022/05/22 12:17:56;;;;;;;2.33;1.05;;;24.80;90.30;;;;;;7393928;19;20134;-79
2022/05/22 12:20:32;;;;;;;1.70;1.00;;;24.80;90.60;;;;;;7394182;19;20288;-79
2022/05/22 12:23:13;;;;;;;1.08;0.93;;;25.00;90.20;;;;;;7397636;19;20134;-77
2022/05/22 12:25:59;;;;;;;1.13;0.90;;;25.10;90.10;;;;;;7393990;19;20135;-76
2022/05/22 12:28:25;;;;;;;1.98;0.90;;;25.00;90.40;;;;;;7391958;19;20163;-74
2022/05/22 12:30:54;;;;;;;2.50;1.00;;;25.30;90.00;;;;;;7393125;19;20131;-75
2022/05/22 12:33:20;;;;;;;2.80;0.95;;;25.40;90.00;;;;;;7393217;19;20548;-75
2022/05/22 12:35:46;;;;;;;2.90;1.20;;;25.50;90.10;;;;;;7392540;19;20135;-76
2022/05/22 12:38:14;;;;;;;1.27;1.17;;;25.50;89.60;;;;;;7389798;19;20167;-75
2022/05/22 12:40:54;;;;;;;1.95;1.08;;;25.50;89.60;;;;;;7391224;19;20145;-76
2022/05/22 12:43:22;;;;;;;1.48;0.85;;;25.60;89.50;;;;;;7392473;19;20597;-74
2022/05/22 12:45:58;;;;;;;1.08;0.98;;;25.50;89.10;;;;;;7391079;19;20198;-79
2022/05/22 12:48:33;;;;;;;1.50;1.08;;;25.40;88.40;;;;;;7391792;19;20613;-75
2022/05/22 12:51:08;;;;;;;1.52;0.90;;;25.00;89.60;;;;;;7393504;19;20126;-76
2022/05/22 12:53:37;;;;;;;2.28;1.05;;;25.20;90.20;;;;;;7392887;19;20153;-76
2022/05/22 12:56:24;;;;;;;1.15;1.00;;;25.40;89.10;;;;;;7390940;19;20153;-77
2022/05/22 12:59:00;;;;;;;1.65;0.80;;;25.50;88.30;;;;;;7394996;19;20138;-79
2022/05/22 13:01:37;;;;;;;2.53;1.00;;;25.40;88.50;;;;;;7390232;19;20123;-76
2022/05/22 13:04:37;;;;;;;1.83;0.90;;;25.40;88.30;;;;;;7392220;19;20918;-79
2022/05/22 13:07:13;;;;;;;1.27;1.10;;;25.40;88.90;;;;;;7393956;19;20134;-75
2022/05/22 13:09:49;;;;;;;1.45;1.08;;;25.50;89.30;;;;;;7398585;19;20162;-75
2022/05/22 13:12:18;;;;;;;1.65;1.00;;;25.60;89.10;;;;;;7400404;19;20899;-75
2022/05/22 13:15:16;;;;;;;1.90;1.00;;;25.50;90.00;;;;;;7400637;19;20150;-79
2022/05/22 13:18:02;;;;;;;3.33;1.05;;;25.40;89.70;;;;;;7398489;19;20612;-81
2022/05/22 13:20:43;;;;;;;4.07;1.13;;;25.60;89.50;;;;;;7395680;19;20135;-77
2022/05/22 13:23:24;;;;;;;1.52;1.15;;;25.60;88.90;;;;;;7398236;19;20138;-76
2022/05/22 13:25:56;;;;;;;1.58;1.08;;;25.80;88.40;;;;;;7401078;19;20144;-75
2022/05/22 13:28:42;;;;;;;2.40;0.90;;;25.90;87.70;;;;;;7401430;19;20513;-80